Terminal Aerodrome Forecast
Issued by NWS

Home | Current Version | Previous Version | Text Only | Print | Product List | Glossary On
Versions: 1 2 3 4 5 6 7 8 9 10 11 12 13 14 15 16 17
000
FTUS43 KAPX 271720
TAFAPN
TAF
KAPN 271720Z 2718/2818 26009KT P6SM SKC
     FM280000 00000KT P6SM SKC
     FM280700 23004KT P6SM SKC
     FM281400 23010KT P6SM SCT030=

USA.gov is the U.S. government's official web portal to all federal, state and local government web resources and services.